Cosco England — VRML8 — position and weather

sailwx.info

Track history (hours):
 
Tides and Currents Weather Stations Pressure Air Temp Water Temp Dewpoint Dewpoint Depression Visibility Wind Speed Wind Dir Waves Ship Positions

Cosco England

Last reported at 2018-Feb-18 10:42 UTC. Time now 2018-Feb-25 13:44 UTC.
Position N 01°13' E 103°30'.

Length 366 m; draft 14 m.

Type: Ship (hazmat cat A). MMSI: 477652300.

Date/timePositionNaut miles runAvg speedWind from/ knotsBaromVisibWave heightAir tempDewpointWater temp
2018-Feb-18 10:42N 01°13' E 103°30'313.1
2018-Feb-18 10:30N 01°14' E 103°32'510.6
2018-Feb-18 10:00N 01°19' E 103°33'1 0.6
2018-Feb-18 07:41N 01°21' E 103°33'0 0.0
2018-Feb-18 07:29N 01°21' E 103°33'0 0.0
2018-Feb-18 06:47N 01°21' E 103°33'0 0.0
2018-Feb-18 06:20N 01°21' E 103°33'0 0.0
2018-Feb-18 05:23N 01°21' E 103°33'0 0.0
2018-Feb-18 04:56N 01°21' E 103°33'0 0.0
2018-Feb-18 03:44N 01°21' E 103°33'0 0.0
2018-Feb-18 03:29N 01°21' E 103°33'0 0.0
2018-Feb-18 02:56N 01°21' E 103°33'0 0.0
2018-Feb-18 02:29N 01°21' E 103°33'0 0.0
2018-Feb-18 01:59N 01°21' E 103°33'0 0.0
2018-Feb-18 01:29N 01°21' E 103°33'0 0.0
2018-Feb-18 00:59N 01°21' E 103°33'0 0.0
2018-Feb-17 23:56N 01°21' E 103°33'0 0.0
2018-Feb-17 23:29N 01°21' E 103°33'0 0.0
2018-Feb-17 22:59N 01°21' E 103°33'0 0.0
2018-Feb-17 22:29N 01°21' E 103°33'0 0.0
2018-Feb-17 21:56N 01°21' E 103°33'0 0.0
2018-Feb-17 21:26N 01°21' E 103°33'0 0.0
2018-Feb-17 20:56N 01°21' E 103°33'0 0.0
2018-Feb-17 20:17N 01°21' E 103°33'0 0.3
2018-Feb-17 19:57N 01°21' E 103°33'2 3.8
2018-Feb-17 19:30N 01°19' E 103°33'4 8.5
2018-Feb-17 19:01N 01°15' E 103°32'3 5.7
2018-Feb-17 18:30N 01°12' E 103°34'3 6.0
2018-Feb-17 17:59N 01°11' E 103°36'4 9.1
2018-Feb-17 17:30N 01°10' E 103°41'610.1
2018-Feb-17 16:57N 01°09' E 103°46'713.4
2018-Feb-17 16:27N 01°12' E 103°52'612.8
2018-Feb-17 16:00N 01°14' E 103°57'713.5
2018-Feb-17 15:29N 01°16' E 104°04'  
2018-Feb-12 04:11N 22°20' E 114°08'0 0.6
2018-Feb-12 04:00N 22°20' E 114°08'18214.9
2018-Feb-11 15:46N 23°08' E 117°18'1419.6
2018-Feb-11 15:04N 23°18' E 117°28'119.2
2018-Feb-11 14:59N 23°19' E 117°29'919.3
2018-Feb-11 14:31N 23°25' E 117°37'1019.2
2018-Feb-11 14:01N 23°31' E 117°45'1019.1
2018-Feb-11 13:30N 23°37' E 117°53'1019.0
2018-Feb-11 13:00N 23°43' E 118°02'918.9
2018-Feb-11 12:30N 23°48' E 118°10'1319.0
2018-Feb-11 11:50N 23°56' E 118°21'618.6
2018-Feb-11 11:30N 23°60' E 118°26'918.5
2018-Feb-11 11:00N 24°05' E 118°34'919.0
2018-Feb-11 10:31N 24°11' E 118°42'425 8.4
2018-Feb-09 08:00N 30°34' E 122°12'  
Track history (hours):
 
Tides and Currents Weather Stations Pressure Air Temp Water Temp Dewpoint Dewpoint Depression Visibility Wind Speed Wind Dir Waves Ship Positions

Cosco England

Last reported at 2018-Feb-18 10:42 UTC. Time now 2018-Feb-25 13:44 UTC.
Position N 01°13' E 103°30'.

Length 366 m; draft 14 m.

Type: Ship (hazmat cat A). MMSI: 477652300.

Date/timePositionNaut miles runAvg speedWind from/ knotsBaromVisibWave heightAir tempDewpointWater temp
2018-Feb-18 10:42N 01°13' E 103°30'313.1
2018-Feb-18 10:30N 01°14' E 103°32'510.6
2018-Feb-18 10:00N 01°19' E 103°33'1 0.6
2018-Feb-18 07:41N 01°21' E 103°33'0 0.0
2018-Feb-18 07:29N 01°21' E 103°33'0 0.0
2018-Feb-18 06:47N 01°21' E 103°33'0 0.0
2018-Feb-18 06:20N 01°21' E 103°33'0 0.0
2018-Feb-18 05:23N 01°21' E 103°33'0 0.0
2018-Feb-18 04:56N 01°21' E 103°33'0 0.0
2018-Feb-18 03:44N 01°21' E 103°33'0 0.0
2018-Feb-18 03:29N 01°21' E 103°33'0 0.0
2018-Feb-18 02:56N 01°21' E 103°33'0 0.0
2018-Feb-18 02:29N 01°21' E 103°33'0 0.0
2018-Feb-18 01:59N 01°21' E 103°33'0 0.0
2018-Feb-18 01:29N 01°21' E 103°33'0 0.0
2018-Feb-18 00:59N 01°21' E 103°33'0 0.0
2018-Feb-17 23:56N 01°21' E 103°33'0 0.0
2018-Feb-17 23:29N 01°21' E 103°33'0 0.0
2018-Feb-17 22:59N 01°21' E 103°33'0 0.0
2018-Feb-17 22:29N 01°21' E 103°33'0 0.0
2018-Feb-17 21:56N 01°21' E 103°33'0 0.0
2018-Feb-17 21:26N 01°21' E 103°33'0 0.0
2018-Feb-17 20:56N 01°21' E 103°33'0 0.0
2018-Feb-17 20:17N 01°21' E 103°33'0 0.3
2018-Feb-17 19:57N 01°21' E 103°33'2 3.8
2018-Feb-17 19:30N 01°19' E 103°33'4 8.5
2018-Feb-17 19:01N 01°15' E 103°32'3 5.7
2018-Feb-17 18:30N 01°12' E 103°34'3 6.0
2018-Feb-17 17:59N 01°11' E 103°36'4 9.1
2018-Feb-17 17:30N 01°10' E 103°41'610.1
2018-Feb-17 16:57N 01°09' E 103°46'713.4
2018-Feb-17 16:27N 01°12' E 103°52'612.8
2018-Feb-17 16:00N 01°14' E 103°57'713.5
2018-Feb-17 15:29N 01°16' E 104°04'  
2018-Feb-12 04:11N 22°20' E 114°08'0 0.6
2018-Feb-12 04:00N 22°20' E 114°08'18214.9
2018-Feb-11 15:46N 23°08' E 117°18'1419.6
2018-Feb-11 15:04N 23°18' E 117°28'119.2
2018-Feb-11 14:59N 23°19' E 117°29'919.3
2018-Feb-11 14:31N 23°25' E 117°37'1019.2
2018-Feb-11 14:01N 23°31' E 117°45'1019.1
2018-Feb-11 13:30N 23°37' E 117°53'1019.0
2018-Feb-11 13:00N 23°43' E 118°02'918.9
2018-Feb-11 12:30N 23°48' E 118°10'1319.0
2018-Feb-11 11:50N 23°56' E 118°21'618.6
2018-Feb-11 11:30N 23°60' E 118°26'918.5
2018-Feb-11 11:00N 24°05' E 118°34'919.0
2018-Feb-11 10:31N 24°11' E 118°42'425 8.4
2018-Feb-09 08:00N 30°34' E 122°12'  

Dump ship's entire track history